createdAt,value
2017-07-20T05:31:31.919Z,148
2017-07-20T05:31:57.396Z,156
2017-07-20T05:32:22.862Z,168
2017-07-20T05:32:48.302Z,168
2017-07-20T05:33:13.776Z,164
2017-07-20T05:33:39.236Z,160
2017-07-20T05:34:04.688Z,152
2017-07-20T05:34:30.147Z,132
2017-07-20T05:34:55.614Z,136
2017-07-20T05:35:21.066Z,132
2017-07-20T05:35:46.526Z,132
2017-07-20T05:36:11.987Z,136
2017-07-20T05:36:37.451Z,140
2017-07-20T05:37:02.908Z,132
2017-07-20T05:37:28.368Z,124
2017-07-20T05:37:53.848Z,120
2017-07-20T05:38:19.314Z,120
2017-07-20T05:38:44.769Z,120
2017-07-20T05:39:10.240Z,124
2017-07-20T05:39:35.685Z,136
2017-07-20T05:40:01.153Z,144
2017-07-20T05:40:26.617Z,152
2017-07-20T05:40:52.115Z,164
2017-07-20T05:41:17.545Z,176
2017-07-20T05:41:43.030Z,184
2017-07-20T05:42:08.490Z,188
2017-07-20T05:42:33.957Z,192
2017-07-20T05:42:59.404Z,188
2017-07-20T05:43:24.872Z,188
2017-07-20T05:43:50.376Z,184
2017-07-20T05:44:15.821Z,184
2017-07-20T05:44:41.287Z,180
2017-07-20T05:45:06.751Z,176
2017-07-20T05:45:32.206Z,176
2017-07-20T05:45:57.655Z,176
2017-07-20T05:46:23.141Z,176
2017-07-20T05:46:48.601Z,172
2017-07-20T05:47:14.067Z,172
2017-07-20T05:47:39.529Z,176
2017-07-20T05:48:04.991Z,180
2017-07-20T05:48:30.465Z,184
2017-07-20T05:48:55.918Z,180
2017-07-20T05:49:21.402Z,184
2017-07-20T05:49:46.860Z,184
2017-07-20T05:50:12.325Z,188
2017-07-20T05:50:37.809Z,188
2017-07-20T05:51:03.266Z,188
2017-07-20T05:51:28.726Z,192
2017-07-20T05:51:54.179Z,192
2017-07-20T05:52:19.628Z,196
2017-07-20T05:52:45.090Z,196
2017-07-20T05:53:10.579Z,196
2017-07-20T05:53:36.045Z,196
2017-07-20T05:54:01.494Z,200
2017-07-20T05:54:26.940Z,200
2017-07-20T05:54:52.424Z,204
2017-07-20T05:55:17.862Z,208
2017-07-20T05:55:43.315Z,216
2017-07-20T05:56:08.786Z,224
2017-07-20T05:56:34.257Z,228
2017-07-20T05:56:59.716Z,240
2017-07-20T05:57:25.194Z,248
2017-07-20T05:57:50.655Z,256
2017-07-20T05:58:16.103Z,264
2017-07-20T05:58:41.603Z,276
2017-07-20T05:59:07.059Z,284
2017-07-20T05:59:32.508Z,288
2017-07-20T05:59:57.985Z,296
2017-07-20T06:00:23.455Z,300
2017-07-20T06:00:48.907Z,308
2017-07-20T06:01:14.379Z,316
2017-07-20T06:01:39.844Z,324
2017-07-20T06:02:05.291Z,332
2017-07-20T06:02:30.760Z,336
2017-07-20T06:02:56.226Z,340
2017-07-20T06:03:21.697Z,340
2017-07-20T06:03:47.146Z,340
2017-07-20T06:04:12.637Z,340
2017-07-20T06:04:38.097Z,348
2017-07-20T06:05:03.552Z,344
2017-07-20T06:05:29.029Z,344
2017-07-20T06:05:54.506Z,344
2017-07-20T06:06:19.971Z,344
2017-07-20T06:06:45.480Z,348
2017-07-20T06:07:10.956Z,352
2017-07-20T06:07:36.417Z,356
2017-07-20T06:08:01.883Z,360
2017-07-20T06:08:27.367Z,364
2017-07-20T06:08:52.833Z,372
2017-07-20T06:09:18.301Z,372
2017-07-20T06:09:43.758Z,368
2017-07-20T06:10:09.213Z,364
2017-07-20T06:10:34.665Z,360
2017-07-20T06:11:00.135Z,360
2017-07-20T06:11:25.638Z,364
2017-07-20T06:11:51.116Z,356
2017-07-20T06:12:16.558Z,356
2017-07-20T06:12:42.042Z,360
2017-07-20T06:13:07.498Z,376
2017-07-20T06:13:32.964Z,396
2017-07-20T06:13:58.434Z,404
2017-07-20T06:14:23.903Z,416
2017-07-20T06:14:49.351Z,424
2017-07-20T06:15:14.844Z,424
2017-07-20T06:15:40.290Z,432
2017-07-20T06:16:05.755Z,440
2017-07-20T06:16:31.234Z,444
2017-07-20T06:16:56.717Z,452
2017-07-20T06:17:22.182Z,456
2017-07-20T06:17:47.668Z,460
2017-07-20T06:18:13.129Z,456
2017-07-20T06:18:38.579Z,460
2017-07-20T06:19:04.042Z,460
2017-07-20T06:19:29.506Z,464
2017-07-20T06:19:54.978Z,468
2017-07-20T06:20:20.443Z,476
2017-07-20T06:20:45.897Z,480
2017-07-20T06:21:11.353Z,492
2017-07-20T06:21:36.822Z,500
2017-07-20T06:22:02.276Z,516
2017-07-20T06:22:27.764Z,532
2017-07-20T06:22:53.200Z,544
2017-07-20T06:23:18.662Z,568
2017-07-20T06:23:44.130Z,580
2017-07-20T06:24:09.590Z,596
2017-07-20T06:24:35.057Z,612
2017-07-20T06:25:00.508Z,632
2017-07-20T06:25:25.986Z,648
2017-07-20T06:25:51.453Z,664
2017-07-20T06:26:16.907Z,672
2017-07-20T06:26:42.380Z,692
2017-07-20T06:27:07.821Z,704
2017-07-20T06:27:33.272Z,736
2017-07-20T06:27:58.741Z,760
2017-07-20T06:28:24.210Z,788
2017-07-20T06:28:49.655Z,820
2017-07-20T06:29:15.128Z,860
2017-07-20T06:29:40.590Z,900
2017-07-20T06:30:06.059Z,936
2017-07-20T06:30:31.519Z,980
2017-07-20T06:30:56.982Z,1028
2017-07-20T06:31:22.441Z,1060
2017-07-20T06:31:47.891Z,1096
2017-07-20T06:32:13.360Z,1128
2017-07-20T06:32:38.805Z,1160
2017-07-20T06:33:04.257Z,1192
2017-07-20T06:33:29.714Z,1232
2017-07-20T06:33:55.209Z,1284
2017-07-20T06:34:20.666Z,1332
2017-07-20T06:34:46.100Z,1400
2017-07-20T06:35:11.571Z,1484
2017-07-20T06:35:37.027Z,1556
2017-07-20T06:36:02.536Z,1640
2017-07-20T06:36:27.993Z,1740
2017-07-20T06:36:53.463Z,1832
2017-07-20T06:37:18.925Z,1924
2017-07-20T06:37:44.403Z,2032
2017-07-20T06:38:09.885Z,2120
2017-07-20T06:38:35.331Z,2144
2017-07-20T06:39:00.789Z,2128
2017-07-20T06:39:26.272Z,2088
2017-07-20T06:39:51.738Z,2064
2017-07-20T06:40:17.196Z,2064
2017-07-20T06:40:42.653Z,2072
2017-07-20T06:41:08.121Z,2064
2017-07-20T06:41:33.570Z,2000
2017-07-20T06:41:59.036Z,1928
2017-07-20T06:42:24.506Z,1884
2017-07-20T06:42:49.961Z,1868
2017-07-20T06:43:15.474Z,1928
2017-07-20T06:43:40.908Z,1988
2017-07-20T06:44:06.366Z,2092
2017-07-20T06:44:31.857Z,2252
2017-07-20T06:44:57.329Z,2428
2017-07-20T06:45:22.785Z,2616
2017-07-20T06:45:48.228Z,2780
2017-07-20T06:46:13.707Z,2888
2017-07-20T06:46:39.179Z,2996
2017-07-20T06:47:04.627Z,3084
2017-07-20T06:47:30.103Z,3168
2017-07-20T06:47:55.551Z,3288
2017-07-20T06:48:21.010Z,3380
2017-07-20T06:48:46.483Z,3480
2017-07-20T06:49:11.973Z,3504
2017-07-20T06:49:37.455Z,3492
2017-07-20T06:50:02.889Z,3496
2017-07-20T06:50:28.364Z,3528
2017-07-20T06:50:53.840Z,3496
2017-07-20T06:51:19.305Z,3416
2017-07-20T06:51:44.771Z,3348
2017-07-20T06:52:10.239Z,3340
2017-07-20T06:52:35.698Z,3372
2017-07-20T06:53:01.188Z,3464
2017-07-20T06:53:26.667Z,3656
2017-07-20T06:53:52.135Z,3876
2017-07-20T06:54:17.596Z,4096
2017-07-20T06:54:43.057Z,4452
2017-07-20T06:55:08.518Z,4636
2017-07-20T06:55:34.014Z,4896
2017-07-20T06:55:59.483Z,5152
2017-07-20T06:56:24.983Z,5408
2017-07-20T06:56:50.445Z,5660
2017-07-20T06:57:15.908Z,5864
2017-07-20T06:57:41.364Z,6004
2017-07-20T06:58:06.828Z,6140
2017-07-20T06:58:32.311Z,6244
2017-07-20T06:58:57.790Z,6300
2017-07-20T06:59:23.261Z,6332
2017-07-20T06:59:48.745Z,6356
2017-07-20T07:00:14.222Z,6372
2017-07-20T07:00:39.701Z,6468
2017-07-20T07:01:05.175Z,6392
2017-07-20T07:01:30.647Z,6344
2017-07-20T07:01:56.118Z,6140
2017-07-20T07:02:21.593Z,5972
2017-07-20T07:02:47.084Z,5740
2017-07-20T07:03:12.565Z,5564
2017-07-20T07:03:38.049Z,5308
2017-07-20T07:04:03.536Z,5068
2017-07-20T07:04:29.020Z,4832
2017-07-20T07:04:54.490Z,4688
2017-07-20T07:05:19.931Z,4596
2017-07-20T07:05:45.426Z,4540
2017-07-20T07:06:10.884Z,4480
2017-07-20T07:06:36.366Z,4528
2017-07-20T07:07:01.827Z,4480
2017-07-20T07:07:27.305Z,4380
2017-07-20T07:07:52.747Z,4312
2017-07-20T07:08:18.242Z,4256
2017-07-20T07:08:43.723Z,4252
2017-07-20T07:09:09.193Z,4256
2017-07-20T07:09:34.657Z,4356
2017-07-20T07:10:00.118Z,4528
2017-07-20T07:10:25.588Z,4700
2017-07-20T07:10:51.042Z,4920
2017-07-20T07:11:16.511Z,5100
2017-07-20T07:11:41.962Z,5328
2017-07-20T07:12:07.433Z,5604
2017-07-20T07:12:32.889Z,5856
2017-07-20T07:12:58.341Z,6080
2017-07-20T07:13:23.817Z,6320
2017-07-20T07:13:49.281Z,6468
2017-07-20T07:14:14.743Z,6636
2017-07-20T07:14:40.221Z,6696
2017-07-20T07:15:05.699Z,6804
2017-07-20T07:15:31.184Z,6884
2017-07-20T07:15:56.646Z,6904
2017-07-20T07:16:22.124Z,6844
2017-07-20T07:16:47.577Z,6728
2017-07-20T07:17:13.054Z,6560
2017-07-20T07:17:38.531Z,6348
2017-07-20T07:18:03.984Z,6128
2017-07-20T07:18:29.487Z,5904
2017-07-20T07:18:54.951Z,5684
2017-07-20T07:19:20.446Z,5488
2017-07-20T07:19:45.929Z,5308
2017-07-20T07:20:11.394Z,5140
2017-07-20T07:20:36.856Z,5012
2017-07-20T07:21:02.318Z,4928
2017-07-20T07:21:27.785Z,4896
2017-07-20T07:21:53.261Z,4904
2017-07-20T07:22:18.711Z,4960
2017-07-20T07:22:44.189Z,5132
2017-07-20T07:23:09.683Z,5176
2017-07-20T07:23:35.108Z,5240
2017-07-20T07:24:00.571Z,5248
2017-07-20T07:24:26.048Z,5264
2017-07-20T07:24:51.529Z,5276
2017-07-20T07:25:16.994Z,5256
2017-07-20T07:25:42.444Z,5280
2017-07-20T07:26:07.927Z,5228
2017-07-20T07:26:33.407Z,5064
2017-07-20T07:26:58.853Z,5216
2017-07-20T07:27:24.320Z,5376
2017-07-20T07:27:49.790Z,5488
2017-07-20T07:28:15.251Z,5632
2017-07-20T07:28:40.718Z,5820
2017-07-20T07:29:06.192Z,6008
2017-07-20T07:29:31.677Z,6160
2017-07-20T07:29:57.134Z,6148
2017-07-20T07:30:22.622Z,6244
2017-07-20T07:30:48.093Z,6212
2017-07-20T07:31:13.547Z,6020
2017-07-20T07:31:39.005Z,5780
2017-07-20T07:32:04.473Z,5764
2017-07-20T07:32:29.947Z,5548
2017-07-20T07:32:55.435Z,4988
2017-07-20T07:33:20.904Z,4308
2017-07-20T07:33:46.360Z,3688
2017-07-20T07:34:11.847Z,3128
2017-07-20T07:34:37.314Z,2860
2017-07-20T07:35:02.790Z,2668
2017-07-20T07:35:28.253Z,2424
2017-07-20T07:35:53.723Z,2324
2017-07-20T07:36:19.185Z,2228
2017-07-20T07:36:44.640Z,2052
2017-07-20T07:37:10.089Z,2052
2017-07-20T07:37:35.532Z,2120
2017-07-20T07:38:01.014Z,2276
2017-07-20T07:38:26.486Z,2472
2017-07-20T07:38:51.944Z,2716
2017-07-20T07:39:17.384Z,3500
2017-07-20T07:39:42.841Z,4284
2017-07-20T07:40:08.325Z,3940
2017-07-20T07:41:31.772Z,2868
2017-07-20T07:41:57.251Z,3144
2017-07-20T07:42:22.715Z,3508
2017-07-20T07:42:48.194Z,3248
2017-07-20T07:43:13.675Z,2924
2017-07-20T07:43:39.153Z,2964
2017-07-20T07:44:04.633Z,3472
2017-07-20T07:44:30.094Z,3948
2017-07-20T07:44:55.546Z,4724
2017-07-20T07:45:21.018Z,5520
2017-07-20T07:45:46.464Z,5660
2017-07-20T07:46:11.934Z,5788
2017-07-20T07:46:37.412Z,6384
2017-07-20T07:47:02.871Z,6860
2017-07-20T07:47:28.332Z,7144
2017-07-20T07:47:53.810Z,7232
2017-07-20T07:48:19.277Z,7224
2017-07-20T07:48:44.760Z,7244
2017-07-20T07:49:10.259Z,7288
2017-07-20T07:49:35.722Z,7364
2017-07-20T07:50:01.176Z,7452
2017-07-20T07:50:26.650Z,7540
2017-07-20T07:50:52.109Z,7560
2017-07-20T07:51:17.580Z,7652
2017-07-20T07:51:43.033Z,7744
2017-07-20T07:52:08.529Z,7796
2017-07-20T07:52:34.000Z,7856
2017-07-20T07:52:59.456Z,7960
2017-07-20T07:53:24.928Z,8056
2017-07-20T07:53:50.385Z,8092
2017-07-20T07:54:15.877Z,7848
2017-07-20T07:54:41.349Z,7648
2017-07-20T07:55:06.815Z,7508
2017-07-20T07:55:32.270Z,7348
2017-07-20T07:55:57.727Z,7552
2017-07-20T07:56:23.195Z,7728
2017-07-20T07:56:48.667Z,7688
2017-07-20T07:57:14.146Z,7328
2017-07-20T07:57:39.584Z,6556
2017-07-20T07:58:05.043Z,5708
2017-07-20T07:58:30.514Z,5232
2017-07-20T07:58:56.008Z,5036
2017-07-20T07:59:21.437Z,4784
2017-07-20T07:59:46.890Z,4328
2017-07-20T08:00:12.322Z,4000
2017-07-20T08:00:37.816Z,3884
2017-07-20T08:01:03.277Z,3916
2017-07-20T08:01:28.725Z,3932
2017-07-20T08:01:54.188Z,4052
2017-07-20T08:02:19.631Z,4212
2017-07-20T08:02:45.101Z,4296
2017-07-20T08:03:10.595Z,4268
2017-07-20T08:03:36.057Z,4180
2017-07-20T08:04:01.537Z,4068
2017-07-20T08:04:27.023Z,3960
2017-07-20T08:04:52.465Z,3868
2017-07-20T08:05:17.907Z,3744
2017-07-20T08:05:43.370Z,3592
2017-07-20T08:06:08.830Z,3396
2017-07-20T08:06:34.301Z,3120
2017-07-20T08:06:59.764Z,2792
2017-07-20T08:07:25.234Z,2584
2017-07-20T08:07:50.678Z,2512
2017-07-20T08:08:16.160Z,2436
2017-07-20T08:08:41.587Z,2424
2017-07-20T08:09:07.059Z,2348
2017-07-20T08:09:32.489Z,2224
2017-07-20T08:09:57.932Z,2020
2017-07-20T08:10:23.392Z,1752
2017-07-20T08:10:48.860Z,1524
2017-07-20T08:11:14.326Z,1340
2017-07-20T08:11:39.795Z,1232
2017-07-20T08:12:05.257Z,1172
2017-07-20T08:12:30.740Z,1200
2017-07-20T08:12:56.170Z,1248
2017-07-20T08:13:21.620Z,1308
2017-07-20T08:13:47.083Z,1352
2017-07-20T08:14:12.563Z,1536
2017-07-20T08:14:38.009Z,1836
2017-07-20T08:15:03.470Z,2004
2017-07-20T08:15:28.921Z,1980
2017-07-20T08:15:54.374Z,1960
2017-07-20T08:16:19.827Z,1920
2017-07-20T08:16:45.289Z,1772
2017-07-20T08:17:10.746Z,1608
2017-07-20T08:17:36.212Z,1808
2017-07-20T08:18:01.660Z,2184
2017-07-20T08:18:27.125Z,2608
2017-07-20T08:18:52.611Z,2928
2017-07-20T08:19:18.095Z,3060
2017-07-20T08:19:43.576Z,3200
2017-07-20T08:20:09.057Z,3064
2017-07-20T08:20:34.475Z,2652
2017-07-20T08:20:59.921Z,2460
2017-07-20T08:21:25.380Z,2608
2017-07-20T08:21:50.859Z,2664
2017-07-20T08:22:16.297Z,2632
2017-07-20T08:22:41.764Z,2476
2017-07-20T08:23:07.241Z,2352
2017-07-20T08:23:32.714Z,2512
2017-07-20T08:23:58.197Z,2772
2017-07-20T08:24:23.654Z,3176
2017-07-20T08:24:49.128Z,3456
2017-07-20T08:25:14.593Z,3468
2017-07-20T08:25:40.043Z,3648
2017-07-20T08:26:05.517Z,3624
2017-07-20T08:26:30.955Z,3956
2017-07-20T08:26:56.434Z,4436
2017-07-20T08:27:21.878Z,5300
2017-07-20T08:27:47.363Z,5584
2017-07-20T08:28:12.862Z,5360
2017-07-20T08:28:38.316Z,4944
2017-07-20T08:29:03.773Z,4296
2017-07-20T08:29:29.217Z,3716
2017-07-20T08:29:54.686Z,3100
2017-07-20T08:30:20.151Z,2744
2017-07-20T08:30:45.621Z,2444
2017-07-20T08:31:11.099Z,2268
2017-07-20T08:31:36.576Z,2788
2017-07-20T08:32:02.043Z,3768
2017-07-20T08:32:27.506Z,4768
2017-07-20T08:32:52.953Z,5392
2017-07-20T08:33:18.416Z,5600
2017-07-20T08:33:43.903Z,5668
2017-07-20T08:34:09.383Z,5804
2017-07-20T08:34:34.894Z,6132
2017-07-20T08:35:00.330Z,5504
2017-07-20T08:35:25.794Z,4812
2017-07-20T08:35:51.252Z,4800
2017-07-20T08:36:16.710Z,4848
2017-07-20T08:36:42.191Z,4720
2017-07-20T08:37:07.705Z,5692
2017-07-20T08:37:33.167Z,6652
2017-07-20T08:37:58.640Z,7480
2017-07-20T08:38:24.086Z,8344
2017-07-20T08:38:49.562Z,8704
2017-07-20T08:39:15.038Z,9036
2017-07-20T08:39:40.528Z,9012
2017-07-20T08:40:05.972Z,8748
2017-07-20T08:40:31.435Z,9288
2017-07-20T08:40:56.922Z,9368
2017-07-20T08:41:22.363Z,8040
2017-07-20T08:41:47.837Z,7084
2017-07-20T08:42:13.308Z,6380
2017-07-20T08:42:38.759Z,5656
2017-07-20T08:43:04.235Z,5244
2017-07-20T08:43:29.708Z,5600
2017-07-20T08:43:55.182Z,6276
2017-07-20T08:44:20.649Z,6268
2017-07-20T08:44:46.113Z,5844
2017-07-20T08:45:11.604Z,4832
2017-07-20T08:45:37.076Z,4128
2017-07-20T08:46:02.530Z,4068
2017-07-20T08:46:27.969Z,4508
2017-07-20T08:46:53.434Z,5348
2017-07-20T08:47:18.912Z,4796
2017-07-20T08:47:44.391Z,3872
2017-07-20T08:48:09.844Z,3356
2017-07-20T08:48:35.323Z,2760
2017-07-20T08:49:00.783Z,2548
2017-07-20T08:49:26.229Z,2700
2017-07-20T08:49:51.687Z,3432
2017-07-20T08:50:17.154Z,5040
2017-07-20T08:50:42.595Z,5864
2017-07-20T08:51:08.086Z,5276
2017-07-20T08:51:33.539Z,4728
2017-07-20T08:51:59.003Z,5312
2017-07-20T08:52:24.472Z,4540
2017-07-20T08:52:49.935Z,4656
2017-07-20T08:53:15.372Z,5480
2017-07-20T08:53:40.841Z,5472
2017-07-20T08:54:06.320Z,4612
2017-07-20T08:54:31.784Z,4828
2017-07-20T08:54:57.256Z,5924
2017-07-20T08:55:22.720Z,7000
2017-07-20T08:55:48.188Z,7592
2017-07-20T08:56:13.643Z,8260
2017-07-20T08:56:39.081Z,9176
2017-07-20T08:57:04.554Z,9596
2017-07-20T08:57:30.027Z,9728
2017-07-20T08:57:55.469Z,9748
2017-07-20T08:58:20.931Z,9404
2017-07-20T08:58:46.393Z,8384
2017-07-20T08:59:11.882Z,6996
2017-07-20T08:59:37.321Z,5148
2017-07-20T09:00:02.798Z,4120
2017-07-20T09:00:28.251Z,4140
2017-07-20T09:00:53.701Z,4640
2017-07-20T09:01:19.181Z,4488
2017-07-20T09:01:44.625Z,4236
2017-07-20T09:02:10.107Z,4740
2017-07-20T09:02:35.560Z,5212
2017-07-20T09:03:01.013Z,5116
2017-07-20T09:03:26.480Z,5144
2017-07-20T09:03:51.917Z,5532
2017-07-20T09:04:17.386Z,5204
2017-07-20T09:04:42.857Z,5156
2017-07-20T09:05:08.348Z,6176
2017-07-20T09:05:33.812Z,5996
2017-07-20T09:05:59.287Z,5208
2017-07-20T09:06:24.741Z,4772
2017-07-20T09:06:50.210Z,5144
2017-07-20T09:07:15.667Z,5244
2017-07-20T09:07:41.126Z,5152
2017-07-20T09:08:06.599Z,4496
2017-07-20T09:08:32.079Z,4296
2017-07-20T09:08:57.551Z,4344
2017-07-20T09:09:23.027Z,4968
2017-07-20T09:09:48.497Z,5576
2017-07-20T09:10:13.958Z,5968
2017-07-20T09:10:39.425Z,6312
2017-07-20T09:11:04.905Z,6740
2017-07-20T09:11:30.377Z,5920
2017-07-20T09:11:55.817Z,5972
2017-07-20T09:12:21.270Z,5784
2017-07-20T09:12:46.727Z,4664
2017-07-20T09:13:12.183Z,4280
2017-07-20T09:13:37.670Z,4316
2017-07-20T09:14:03.124Z,4680
2017-07-20T09:14:28.575Z,4300
2017-07-20T09:14:54.020Z,3932
2017-07-20T09:15:19.487Z,3588
2017-07-20T09:15:44.938Z,3828
2017-07-20T09:16:10.414Z,5236
2017-07-20T09:16:35.927Z,5228
2017-07-20T09:17:01.389Z,6648
2017-07-20T09:17:26.852Z,6896
2017-07-20T09:17:52.318Z,6564
2017-07-20T09:18:17.763Z,6040
2017-07-20T09:18:43.207Z,5428
2017-07-20T09:19:08.655Z,6168
2017-07-20T09:19:34.106Z,5976
2017-07-20T09:19:59.616Z,5236
2017-07-20T09:20:25.079Z,4988
2017-07-20T09:20:50.541Z,4840
2017-07-20T09:21:16.006Z,5104
2017-07-20T09:21:41.467Z,5948
2017-07-20T09:22:06.936Z,8132
2017-07-20T09:22:32.395Z,8400
2017-07-20T09:22:57.870Z,7752
2017-07-20T09:23:23.302Z,6892
2017-07-20T09:23:48.778Z,6700
2017-07-20T09:24:14.232Z,8696
2017-07-20T09:24:39.698Z,9296
2017-07-20T09:25:05.162Z,8760
2017-07-20T09:25:30.605Z,7952
2017-07-20T09:25:56.065Z,7612
2017-07-20T09:26:21.521Z,7324
2017-07-20T09:26:46.964Z,6592
2017-07-20T09:27:12.440Z,5860
2017-07-20T09:27:37.890Z,4616
2017-07-20T09:28:03.366Z,3844
2017-07-20T09:28:28.850Z,3676
2017-07-20T09:28:54.334Z,3980
2017-07-20T09:29:19.783Z,4696
2017-07-20T09:29:45.246Z,6384
2017-07-20T09:30:10.687Z,7248
2017-07-20T09:30:36.156Z,7092
2017-07-20T09:31:01.633Z,6092
2017-07-20T09:31:27.094Z,5000
2017-07-20T09:31:52.540Z,4868
2017-07-20T09:32:18.020Z,4440
2017-07-20T09:32:43.458Z,4436
2017-07-20T09:33:08.914Z,5784
2017-07-20T09:33:34.369Z,5544
2017-07-20T09:33:59.837Z,7448
2017-07-20T09:34:25.301Z,10964
2017-07-20T09:34:50.747Z,10728
2017-07-20T09:35:16.206Z,12188
2017-07-20T09:35:41.664Z,13928
2017-07-20T09:36:07.142Z,14280
2017-07-20T09:36:32.619Z,13112
2017-07-20T09:36:58.086Z,11796
2017-07-20T09:37:23.553Z,11336
2017-07-20T09:37:48.998Z,11392
2017-07-20T09:38:14.503Z,11072
2017-07-20T09:38:39.934Z,10944
2017-07-20T09:39:05.393Z,11024
2017-07-20T09:39:30.882Z,11328
2017-07-20T09:39:56.343Z,11324
2017-07-20T09:40:21.799Z,10828
2017-07-20T09:40:47.293Z,10048
2017-07-20T09:41:12.755Z,8772
2017-07-20T09:41:38.228Z,9832
2017-07-20T09:42:03.680Z,10956
2017-07-20T09:42:29.149Z,11552
2017-07-20T09:42:54.610Z,12900
2017-07-20T09:43:20.092Z,13328
2017-07-20T09:43:45.534Z,13976
2017-07-20T09:44:10.996Z,13704
2017-07-20T09:44:36.489Z,13384
2017-07-20T09:45:01.935Z,13212
2017-07-20T09:45:27.362Z,11992
2017-07-20T09:45:52.821Z,13084
2017-07-20T09:46:18.274Z,13080
2017-07-20T09:46:43.737Z,11292
2017-07-20T09:47:09.198Z,13268
2017-07-20T09:47:34.633Z,12584
2017-07-20T09:48:00.081Z,11468
2017-07-20T09:48:25.578Z,12196
2017-07-20T09:48:51.026Z,11676
2017-07-20T09:49:16.478Z,10864
2017-07-20T09:49:41.986Z,10040
2017-07-20T09:50:07.449Z,9632
2017-07-20T09:50:32.903Z,9008
2017-07-20T09:50:58.357Z,8684
2017-07-20T09:51:23.796Z,8872
2017-07-20T09:51:49.273Z,10240
2017-07-20T09:52:14.746Z,10320
2017-07-20T09:52:40.185Z,10180
2017-07-20T09:53:05.648Z,10956
2017-07-20T09:53:31.113Z,11944
2017-07-20T09:53:56.571Z,11620
2017-07-20T09:54:22.030Z,11240
2017-07-20T09:54:47.467Z,10420
2017-07-20T09:55:12.939Z,10460
2017-07-20T09:55:38.416Z,11080
2017-07-20T09:56:03.884Z,10960
2017-07-20T09:56:29.371Z,11132
2017-07-20T09:56:54.789Z,9756
2017-07-20T09:57:20.265Z,9012
2017-07-20T09:57:45.724Z,9248
2017-07-20T09:58:11.201Z,8892
2017-07-20T09:58:36.667Z,8680
2017-07-20T09:59:02.127Z,9284
2017-07-20T09:59:27.594Z,9632
2017-07-20T09:59:53.081Z,9980
2017-07-20T10:00:18.548Z,9904
2017-07-20T10:00:44.000Z,10452
2017-07-20T10:01:09.446Z,10848
2017-07-20T10:01:34.917Z,11464
2017-07-20T10:02:00.354Z,9348
2017-07-20T10:02:25.810Z,6680
2017-07-20T10:02:51.283Z,6696
2017-07-20T10:03:16.730Z,7956
2017-07-20T10:03:42.208Z,7692
2017-07-20T10:04:07.673Z,7112
2017-07-20T10:04:33.105Z,9728
2017-07-20T10:04:58.561Z,11516
2017-07-20T10:05:24.012Z,11872
2017-07-20T10:05:49.458Z,11300
2017-07-20T10:06:14.916Z,11012
2017-07-20T10:06:40.389Z,12092
2017-07-20T10:07:05.863Z,11332
2017-07-20T10:07:31.331Z,11624
2017-07-20T10:07:56.813Z,13044
2017-07-20T10:08:22.270Z,12868
2017-07-20T10:08:47.735Z,13076
2017-07-20T10:09:13.188Z,11680
2017-07-20T10:09:38.668Z,10636
2017-07-20T10:10:04.136Z,10148
2017-07-20T10:10:29.606Z,10780
2017-07-20T10:10:55.024Z,9312
2017-07-20T10:11:20.504Z,9116
2017-07-20T10:11:45.913Z,9848
2017-07-20T10:12:11.353Z,8548
2017-07-20T10:12:36.797Z,8148
2017-07-20T10:13:02.270Z,7928
2017-07-20T10:13:27.746Z,8332
2017-07-20T10:13:53.185Z,7612
2017-07-20T10:14:18.632Z,7504
2017-07-20T10:14:44.096Z,8568
2017-07-20T10:15:09.587Z,9112
2017-07-20T10:15:35.018Z,8728
2017-07-20T10:16:00.495Z,7828
2017-07-20T10:16:25.946Z,7224
2017-07-20T10:16:51.398Z,7456
2017-07-20T10:17:16.862Z,7256
2017-07-20T10:17:42.293Z,6476
2017-07-20T10:18:07.744Z,7088
2017-07-20T10:18:33.192Z,7704
2017-07-20T10:18:58.644Z,7732
2017-07-20T10:19:24.093Z,8028
2017-07-20T10:19:49.552Z,8164
2017-07-20T10:20:15.018Z,8188
2017-07-20T10:20:40.442Z,8352
2017-07-20T10:21:05.879Z,8376
2017-07-20T10:21:31.337Z,8372
2017-07-20T10:21:56.784Z,8672
2017-07-20T10:22:22.259Z,8820
2017-07-20T10:22:47.712Z,8356
2017-07-20T10:23:13.185Z,7420
2017-07-20T10:23:38.627Z,6428
2017-07-20T10:24:04.126Z,6940
2017-07-20T10:24:29.555Z,8508
2017-07-20T10:24:55.051Z,10104
2017-07-20T10:25:20.501Z,10956
2017-07-20T10:25:45.956Z,11320
2017-07-20T10:26:11.393Z,11560
2017-07-20T10:26:36.862Z,11940
2017-07-20T10:27:02.330Z,11820
2017-07-20T10:27:27.782Z,11824
2017-07-20T10:27:53.232Z,11596
2017-07-20T10:28:18.696Z,10960
2017-07-20T10:28:44.135Z,10560
2017-07-20T10:29:09.604Z,10564
2017-07-20T10:29:35.080Z,10796
2017-07-20T10:30:00.554Z,10636
2017-07-20T10:30:26.026Z,10308
2017-07-20T10:30:51.498Z,9732
2017-07-20T10:31:16.948Z,9596
2017-07-20T10:31:42.409Z,9360
2017-07-20T10:32:07.875Z,9044
2017-07-20T10:32:33.325Z,8520
2017-07-20T10:32:58.774Z,8268
2017-07-20T10:33:24.226Z,8924
2017-07-20T10:33:49.672Z,9900
2017-07-20T10:34:15.126Z,10716
2017-07-20T10:34:40.580Z,10684
2017-07-20T10:35:06.060Z,11112
2017-07-20T10:35:31.556Z,11460
2017-07-20T10:35:56.975Z,11872
2017-07-20T10:36:22.466Z,12116
2017-07-20T10:36:47.929Z,12108
2017-07-20T10:37:13.399Z,12032
2017-07-20T10:37:38.838Z,12248
2017-07-20T10:38:04.331Z,11700
2017-07-20T10:38:29.814Z,11548
2017-07-20T10:38:55.271Z,11892
2017-07-20T10:39:20.724Z,11736
2017-07-20T10:39:46.159Z,11608
2017-07-20T10:40:11.606Z,11260
2017-07-20T10:40:37.070Z,10892
2017-07-20T10:41:02.571Z,11624
2017-07-20T10:41:28.020Z,11692
2017-07-20T10:41:53.486Z,11156
2017-07-20T10:42:18.940Z,10532
2017-07-20T10:42:44.407Z,9912
2017-07-20T10:43:09.844Z,9232
2017-07-20T10:43:35.309Z,9072
2017-07-20T10:44:00.787Z,8524
2017-07-20T10:44:26.258Z,8560
2017-07-20T10:44:51.717Z,9112
2017-07-20T10:45:17.217Z,9508
2017-07-20T10:45:42.686Z,9524
2017-07-20T10:46:08.137Z,9156
2017-07-20T10:46:33.629Z,8632
2017-07-20T10:46:59.105Z,8660
2017-07-20T10:47:24.551Z,8732
2017-07-20T10:47:50.015Z,8668
2017-07-20T10:48:15.475Z,8308
2017-07-20T10:48:40.931Z,8036
2017-07-20T10:49:06.385Z,8104
2017-07-20T10:49:31.830Z,8548
2017-07-20T10:49:57.281Z,9292
2017-07-20T10:50:22.741Z,9960
2017-07-20T10:50:48.209Z,10096
2017-07-20T10:51:13.658Z,10232
2017-07-20T10:51:39.137Z,10860
2017-07-20T10:52:04.593Z,11316
2017-07-20T10:52:30.057Z,11248
2017-07-20T10:52:55.528Z,11080
2017-07-20T10:53:20.990Z,11204
2017-07-20T10:53:46.448Z,11208
2017-07-20T10:54:11.919Z,10580
2017-07-20T10:54:37.360Z,10196
2017-07-20T10:55:02.808Z,10212
2017-07-20T10:55:28.221Z,10780
2017-07-20T10:55:53.673Z,10304
2017-07-20T10:56:19.134Z,10132
2017-07-20T10:56:44.590Z,10260
2017-07-20T10:57:10.034Z,9572
2017-07-20T10:57:35.462Z,8756
2017-07-20T10:58:00.893Z,8544
2017-07-20T10:58:26.341Z,8348
2017-07-20T10:58:51.812Z,8432
2017-07-20T10:59:17.277Z,8132
2017-07-20T10:59:42.758Z,7804
2017-07-20T11:00:08.179Z,7916
2017-07-20T11:00:33.652Z,8072
2017-07-20T11:00:59.111Z,8160
2017-07-20T11:01:24.559Z,8380
2017-07-20T11:01:50.017Z,8344
2017-07-20T11:02:15.464Z,8500
2017-07-20T11:02:40.939Z,8624
2017-07-20T11:03:06.405Z,8908
2017-07-20T11:03:31.851Z,9288
2017-07-20T11:03:57.311Z,9716
2017-07-20T11:04:22.801Z,9932
2017-07-20T11:04:48.289Z,9852
2017-07-20T11:05:13.757Z,10132
2017-07-20T11:05:39.231Z,10328
2017-07-20T11:06:04.713Z,10428
2017-07-20T11:06:30.154Z,11260
2017-07-20T11:06:55.625Z,11736
2017-07-20T11:07:21.083Z,11412
2017-07-20T11:07:46.578Z,10880
2017-07-20T11:08:12.007Z,11112
2017-07-20T11:08:37.451Z,10972
2017-07-20T11:09:02.921Z,10660
2017-07-20T11:09:28.355Z,11380
2017-07-20T11:09:53.815Z,10728
2017-07-20T11:10:19.342Z,10108
2017-07-20T11:10:44.729Z,8880
2017-07-20T11:11:10.175Z,7424